sim
Sign-in with your pilot id or email,
or register
Callsign
Passwort

Schedule Details

Flight Number: OEO2128
Departure: Frankfurt Airport (EDDF) at 12:10
Arrival: Thessaloniki International Airport (LGTS) at 14:40

Weather Information
Getting current METAR information for EDDF 252120Z 22006KT CAVOK 13/06 Q1010 NOSIG
Getting current METAR information for LGTS 252120Z 00000KT CAVOK 15/12 Q1020 NOSIG

Schedule Frequency

Route Map